Time;durP1;ratioP1;P1;durP2;ratioP2;P2;SDS_P1;SDS_P2;PMS_P1;PMS_P2;Temp;Humidity;BMP_temperature;BMP_pressure;BME280_temperature;BME280_humidity;BME280_pressure;Samples;Min_cycle;Max_cycle;Signal;HPM_P1;HPM_P2
2021/12/23 00:00:10;;;;;;;51.37;20.20;;;;;;;;;;2593818;53;22290;-80
2021/12/23 00:02:39;;;;;;;54.97;22.95;;;;;;;;;;2347390;57;21041;-80
2021/12/23 00:05:06;;;;;;;55.97;22.73;;;;;;;;;;2594600;53;21026;-80
2021/12/23 00:07:33;;;;;;;51.88;21.42;;;;;;;;;;2594324;53;21041;-80
2021/12/23 00:10:06;;;;;;;57.08;22.15;;;;;;;;;;2594088;53;21037;-79
2021/12/23 00:12:33;;;;;;;50.60;21.75;;;;;;;;;;2594108;53;21151;-78
2021/12/23 00:15:02;;;;;;;51.30;20.17;;;;;;;;;;2594503;53;21100;-80
2021/12/23 00:17:53;;;;;;;45.65;19.90;;;;;;;;;;2347389;57;21112;-79
2021/12/23 00:23:25;;;;;;;50.72;20.85;;;;;;;;;;2347204;57;21045;-80
2021/12/23 00:25:53;;;;;;;44.75;20.02;;;;;;;;;;2347434;57;21133;-80
2021/12/23 00:28:20;;;;;;;47.40;21.45;;;;;;;;;;2347045;57;21033;-80
2021/12/23 00:30:47;;;;;;;50.78;20.88;;;;;;;;;;2346726;57;21052;-79
2021/12/23 00:33:14;;;;;;;57.22;21.87;;;;;;;;;;2346910;57;21032;-80
2021/12/23 00:35:41;;;;;;;44.85;19.73;;;;;;;;;;2594203;53;21029;-80
2021/12/23 00:38:16;;;;;;;55.75;21.42;;;;;;;;;;2594419;53;21013;-80
2021/12/23 00:40:43;;;;;;;51.03;19.65;;;;;;;;;;2594590;53;21100;-80
2021/12/23 00:43:10;;;;;;;47.70;19.00;;;;;;;;;;2347438;57;21037;-80
2021/12/23 00:45:37;;;;;;;47.17;21.17;;;;;;;;;;2347321;57;21025;-79
2021/12/23 00:48:05;;;;;;;44.88;19.12;;;;;;;;;;2347559;57;21516;-79
2021/12/23 00:50:32;;;;;;;43.70;18.27;;;;;;;;;;2593804;53;22181;-79
2021/12/23 00:53:01;;;;;;;54.67;22.17;;;;;;;;;;2594216;53;21572;-79
2021/12/23 00:55:28;;;;;;;48.50;19.37;;;;;;;;;;2594295;53;21077;-79
2021/12/23 00:57:55;;;;;;;47.38;21.08;;;;;;;;;;2594018;53;21076;-79
2021/12/23 01:00:22;;;;;;;47.40;19.27;;;;;;;;;;2346635;57;21040;-79
2021/12/23 01:02:49;;;;;;;44.53;19.12;;;;;;;;;;2592814;53;21600;-79
2021/12/23 01:05:19;;;;;;;44.28;19.70;;;;;;;;;;2347478;57;21681;-80
2021/12/23 01:07:46;;;;;;;43.25;20.33;;;;;;;;;;2347361;57;21087;-79
2021/12/23 01:10:13;;;;;;;45.45;19.08;;;;;;;;;;2594026;53;21109;-79
2021/12/23 01:12:45;;;;;;;45.60;18.60;;;;;;;;;;2346903;57;21089;-80
2021/12/23 01:15:14;;;;;;;44.67;19.05;;;;;;;;;;2594760;53;21148;-80
2021/12/23 01:17:54;;;;;;;42.53;17.65;;;;;;;;;;2347045;57;21052;-80
2021/12/23 01:20:27;;;;;;;47.42;19.42;;;;;;;;;;2346601;57;21033;-80
2021/12/23 01:22:55;;;;;;;43.22;18.15;;;;;;;;;;2347279;57;21045;-80
2021/12/23 01:25:22;;;;;;;43.78;18.67;;;;;;;;;;2594470;53;21065;-80
2021/12/23 01:27:49;;;;;;;49.15;18.62;;;;;;;;;;2347270;57;21175;-80
2021/12/23 01:30:17;;;;;;;46.80;18.83;;;;;;;;;;2594010;53;21134;-80
2021/12/23 01:32:46;;;;;;;47.75;19.70;;;;;;;;;;2594384;53;21029;-80
2021/12/23 01:35:14;;;;;;;44.78;18.17;;;;;;;;;;2347223;57;21017;-80
2021/12/23 01:37:40;;;;;;;52.40;19.37;;;;;;;;;;2594022;53;21081;-80
2021/12/23 01:40:09;;;;;;;45.00;18.80;;;;;;;;;;2347322;57;21041;-80
2021/12/23 01:42:36;;;;;;;43.97;19.77;;;;;;;;;;2347136;57;21045;-80
2021/12/23 01:45:08;;;;;;;53.05;19.85;;;;;;;;;;2346896;57;21109;-80
2021/12/23 01:47:35;;;;;;;45.12;19.67;;;;;;;;;;2347613;57;21053;-80
2021/12/23 01:50:03;;;;;;;41.37;17.98;;;;;;;;;;2346531;57;21029;-79
2021/12/23 01:52:31;;;;;;;44.00;18.77;;;;;;;;;;2594622;53;21092;-80
2021/12/23 01:54:58;;;;;;;41.47;18.92;;;;;;;;;;2347560;57;21049;-80
2021/12/23 01:57:26;;;;;;;45.60;18.42;;;;;;;;;;2346983;57;21076;-80
2021/12/23 01:59:53;;;;;;;49.38;20.33;;;;;;;;;;2594141;53;21084;-80
2021/12/23 02:02:20;;;;;;;51.47;19.87;;;;;;;;;;2347086;57;21040;-80
2021/12/23 02:04:47;;;;;;;40.45;17.20;;;;;;;;;;2346804;57;21025;-80
2021/12/23 02:07:14;;;;;;;47.22;19.48;;;;;;;;;;2346748;57;21029;-78
2021/12/23 02:09:41;;;;;;;42.50;20.08;;;;;;;;;;2593394;53;21022;-77
2021/12/23 02:12:09;;;;;;;47.50;19.83;;;;;;;;;;2346833;57;21096;-79
2021/12/23 02:14:36;;;;;;;41.92;17.60;;;;;;;;;;2592902;53;21203;-78
2021/12/23 02:17:04;;;;;;;42.45;18.52;;;;;;;;;;2346803;57;21033;-79
2021/12/23 02:19:32;;;;;;;43.33;19.33;;;;;;;;;;2592794;53;21029;-78
2021/12/23 02:21:59;;;;;;;40.92;17.90;;;;;;;;;;2346701;57;21095;-78
2021/12/23 02:24:26;;;;;;;43.38;18.35;;;;;;;;;;2346434;57;21053;-76
2021/12/23 02:26:53;;;;;;;46.20;19.30;;;;;;;;;;2346537;57;21318;-79
2021/12/23 02:29:20;;;;;;;52.38;20.55;;;;;;;;;;2346076;57;21040;-79
2021/12/23 02:31:48;;;;;;;43.75;19.12;;;;;;;;;;2346139;57;21032;-78
2021/12/23 02:34:15;;;;;;;48.83;19.27;;;;;;;;;;2594044;53;21049;-79
2021/12/23 02:36:42;;;;;;;49.10;21.12;;;;;;;;;;2346682;57;21009;-78
2021/12/23 02:39:09;;;;;;;48.17;20.75;;;;;;;;;;2592777;53;21029;-78
2021/12/23 02:41:41;;;;;;;43.90;18.25;;;;;;;;;;2346228;57;21060;-78
2021/12/23 02:44:08;;;;;;;45.92;18.70;;;;;;;;;;2346385;57;21204;-78
2021/12/23 02:46:36;;;;;;;56.47;21.45;;;;;;;;;;2593168;53;21073;-78
2021/12/23 02:49:03;;;;;;;48.35;19.62;;;;;;;;;;2346027;57;21559;-78
2021/12/23 02:51:29;;;;;;;42.95;19.17;;;;;;;;;;2593437;53;21037;-78
2021/12/23 02:53:56;;;;;;;42.17;19.85;;;;;;;;;;2346685;57;21104;-79
2021/12/23 02:56:23;;;;;;;46.00;19.00;;;;;;;;;;2593057;53;21072;-78
2021/12/23 02:58:51;;;;;;;47.42;19.73;;;;;;;;;;2592830;53;21092;-79
2021/12/23 03:01:20;;;;;;;48.03;18.73;;;;;;;;;;2346468;57;21573;-78
2021/12/23 03:03:47;;;;;;;44.15;18.37;;;;;;;;;;2346802;57;21564;-78
2021/12/23 03:06:18;;;;;;;48.55;19.60;;;;;;;;;;2346488;57;21024;-78
2021/12/23 03:08:46;;;;;;;49.05;19.50;;;;;;;;;;2346294;57;21081;-78
2021/12/23 03:11:14;;;;;;;39.72;19.33;;;;;;;;;;2346452;57;21076;-78
2021/12/23 03:13:41;;;;;;;38.05;16.23;;;;;;;;;;2346251;57;21073;-78
2021/12/23 03:16:09;;;;;;;41.22;17.80;;;;;;;;;;2593260;53;21112;-78
2021/12/23 03:18:36;;;;;;;47.58;19.60;;;;;;;;;;2346674;57;21930;-79
2021/12/23 03:21:04;;;;;;;44.40;19.05;;;;;;;;;;2345943;57;21529;-79
2021/12/23 03:23:32;;;;;;;48.05;20.27;;;;;;;;;;2593771;53;21548;-78
2021/12/23 03:26:00;;;;;;;47.22;20.12;;;;;;;;;;2346068;57;21037;-78
2021/12/23 03:28:27;;;;;;;41.70;18.02;;;;;;;;;;2593627;53;21113;-78
2021/12/23 03:30:54;;;;;;;42.47;18.08;;;;;;;;;;2346093;57;21048;-78
2021/12/23 03:33:21;;;;;;;45.63;20.27;;;;;;;;;;2346820;57;21041;-78
2021/12/23 03:35:48;;;;;;;35.72;16.12;;;;;;;;;;2346367;57;21056;-79
2021/12/23 03:38:16;;;;;;;41.00;17.98;;;;;;;;;;2593446;53;21029;-79
2021/12/23 03:40:43;;;;;;;42.08;18.27;;;;;;;;;;2346340;57;21049;-79
2021/12/23 03:43:12;;;;;;;47.97;21.52;;;;;;;;;;2347048;57;21029;-79
2021/12/23 03:45:39;;;;;;;47.10;19.92;;;;;;;;;;2594271;53;21009;-79
2021/12/23 03:48:06;;;;;;;47.97;19.98;;;;;;;;;;2593560;53;21065;-78
2021/12/23 03:50:33;;;;;;;44.80;18.40;;;;;;;;;;2346220;57;21021;-79
2021/12/23 03:53:00;;;;;;;46.70;19.75;;;;;;;;;;2593802;53;21081;-79
2021/12/23 03:55:27;;;;;;;46.13;18.42;;;;;;;;;;2346824;57;21120;-78
2021/12/23 03:57:54;;;;;;;52.53;21.17;;;;;;;;;;2346906;57;21518;-78
2021/12/23 04:00:22;;;;;;;49.97;20.42;;;;;;;;;;2346036;57;21032;-78
2021/12/23 04:02:49;;;;;;;42.42;18.60;;;;;;;;;;2593509;53;21101;-79
2021/12/23 04:05:17;;;;;;;37.47;17.00;;;;;;;;;;2593407;53;21014;-79
2021/12/23 04:07:44;;;;;;;44.33;19.42;;;;;;;;;;2346069;57;21594;-78
2021/12/23 04:10:13;;;;;;;51.45;20.70;;;;;;;;;;2592940;53;21163;-79
2021/12/23 04:12:39;;;;;;;49.63;19.17;;;;;;;;;;2594037;53;21021;-78
2021/12/23 04:15:07;;;;;;;40.90;17.48;;;;;;;;;;2346451;57;21029;-78
2021/12/23 04:17:35;;;;;;;43.22;18.92;;;;;;;;;;2346466;57;21041;-78
2021/12/23 04:20:14;;;;;;;45.63;19.80;;;;;;;;;;2346120;57;21092;-79
2021/12/23 04:22:41;;;;;;;41.78;18.05;;;;;;;;;;2345843;57;21021;-77
2021/12/23 04:25:10;;;;;;;42.83;19.02;;;;;;;;;;2346023;57;21045;-78
2021/12/23 04:27:37;;;;;;;48.53;21.67;;;;;;;;;;2346817;57;21037;-79
2021/12/23 04:30:05;;;;;;;48.50;21.48;;;;;;;;;;2346097;57;21037;-77
2021/12/23 04:32:32;;;;;;;43.25;19.62;;;;;;;;;;2346674;57;21100;-79
2021/12/23 04:34:59;;;;;;;42.92;18.77;;;;;;;;;;2347253;57;21069;-81
2021/12/23 04:37:26;;;;;;;46.75;19.67;;;;;;;;;;2594047;53;21632;-79
2021/12/23 04:39:53;;;;;;;41.53;19.25;;;;;;;;;;2593802;53;21104;-79
2021/12/23 04:42:20;;;;;;;43.20;18.52;;;;;;;;;;2347034;57;21024;-79
2021/12/23 04:44:47;;;;;;;49.30;21.27;;;;;;;;;;2346795;57;21134;-79
2021/12/23 04:47:13;;;;;;;46.03;18.67;;;;;;;;;;2594010;53;21077;-79
2021/12/23 04:49:40;;;;;;;49.00;18.67;;;;;;;;;;2345307;57;21032;-79
2021/12/23 04:52:08;;;;;;;42.33;19.80;;;;;;;;;;2346983;57;21029;-79
2021/12/23 04:54:35;;;;;;;40.72;18.15;;;;;;;;;;2594267;53;21569;-78
2021/12/23 04:57:02;;;;;;;38.50;17.55;;;;;;;;;;2593824;53;21505;-79
2021/12/23 04:59:29;;;;;;;41.67;18.25;;;;;;;;;;2346470;57;21616;-79
2021/12/23 05:01:56;;;;;;;41.30;19.42;;;;;;;;;;2594353;53;21037;-79
2021/12/23 05:04:23;;;;;;;43.63;18.48;;;;;;;;;;2473750;52;70096;-75
2021/12/23 05:06:50;;;;;;;46.15;19.00;;;;;;;;;;2367163;56;21101;-75
2021/12/23 05:09:17;;;;;;;45.65;19.20;;;;;;;;;;2368421;53;21105;-76
2021/12/23 05:11:44;;;;;;;46.25;19.73;;;;;;;;;;2365425;56;21105;-76
2021/12/23 05:14:11;;;;;;;43.45;19.83;;;;;;;;;;2364332;56;21126;-75
2021/12/23 05:16:38;;;;;;;43.10;18.83;;;;;;;;;;2365240;56;21026;-76
2021/12/23 05:19:05;;;;;;;47.28;19.80;;;;;;;;;;2364981;56;21030;-75
2021/12/23 05:21:32;;;;;;;45.75;19.70;;;;;;;;;;2378446;53;21042;-76
2021/12/23 05:24:26;;;;;;;48.08;20.35;;;;;;;;;;2473077;53;21057;-75
2021/12/23 05:26:53;;;;;;;42.38;18.45;;;;;;;;;;2357769;56;21077;-76
2021/12/23 05:29:20;;;;;;;48.05;20.23;;;;;;;;;;2365057;56;21551;-76
2021/12/23 05:31:47;;;;;;;42.35;19.48;;;;;;;;;;2365600;56;21124;-76
2021/12/23 05:34:14;;;;;;;43.58;19.75;;;;;;;;;;2366985;53;21101;-75
2021/12/23 05:36:42;;;;;;;46.03;19.83;;;;;;;;;;2365836;56;21575;-75
2021/12/23 05:39:09;;;;;;;46.50;19.25;;;;;;;;;;2389933;53;21056;-75
2021/12/23 05:41:36;;;;;;;42.17;20.02;;;;;;;;;;2366158;56;21540;-76
2021/12/23 05:44:03;;;;;;;45.67;21.42;;;;;;;;;;2365659;56;21117;-76
2021/12/23 05:46:30;;;;;;;44.60;21.02;;;;;;;;;;2366040;56;21196;-75
2021/12/23 05:48:57;;;;;;;47.20;19.98;;;;;;;;;;2510684;53;21026;-76
2021/12/23 05:51:24;;;;;;;48.47;21.48;;;;;;;;;;2365314;56;21065;-77
2021/12/23 05:53:51;;;;;;;43.47;20.17;;;;;;;;;;2365555;56;21092;-77
2021/12/23 05:56:18;;;;;;;53.13;22.75;;;;;;;;;;2365709;56;21508;-77
2021/12/23 05:58:45;;;;;;;50.22;21.92;;;;;;;;;;2365292;56;21045;-75
2021/12/23 06:01:12;;;;;;;40.05;18.92;;;;;;;;;;2365540;56;21041;-76
2021/12/23 06:03:40;;;;;;;44.67;20.58;;;;;;;;;;2365649;56;21540;-75
2021/12/23 06:06:07;;;;;;;47.58;21.17;;;;;;;;;;2405273;53;21097;-76
2021/12/23 06:08:34;;;;;;;40.63;19.35;;;;;;;;;;2365985;57;21041;-84
2021/12/23 06:11:01;;;;;;;44.75;20.35;;;;;;;;;;2371654;53;21034;-76
2021/12/23 06:13:28;;;;;;;45.15;18.77;;;;;;;;;;2365614;57;21045;-76
2021/12/23 06:15:55;;;;;;;45.22;19.52;;;;;;;;;;2453963;53;21631;-76
2021/12/23 06:18:22;;;;;;;44.70;20.17;;;;;;;;;;2365278;56;21033;-76
2021/12/23 06:20:49;;;;;;;47.67;21.02;;;;;;;;;;2392764;53;21188;-76
2021/12/23 06:23:16;;;;;;;46.05;19.25;;;;;;;;;;2373783;53;21053;-76
2021/12/23 06:25:43;;;;;;;45.28;21.60;;;;;;;;;;2365941;57;21100;-76
2021/12/23 06:28:10;;;;;;;49.95;20.88;;;;;;;;;;2365890;53;21070;-76
2021/12/23 06:30:37;;;;;;;45.30;20.67;;;;;;;;;;2365294;57;21021;-76
2021/12/23 06:33:04;;;;;;;44.33;20.12;;;;;;;;;;2365684;57;21634;-76
2021/12/23 06:35:32;;;;;;;49.55;21.35;;;;;;;;;;2365893;57;21133;-76
2021/12/23 06:38:03;;;;;;;44.35;18.27;;;;;;;;;;2365866;57;21549;-76
2021/12/23 06:40:30;;;;;;;47.83;21.95;;;;;;;;;;2365385;57;21046;-76
2021/12/23 06:42:57;;;;;;;47.80;20.15;;;;;;;;;;2365804;57;21077;-76
2021/12/23 06:45:24;;;;;;;50.65;20.35;;;;;;;;;;2365833;56;21073;-74
2021/12/23 06:47:51;;;;;;;50.63;20.02;;;;;;;;;;2366005;56;21045;-74
2021/12/23 06:50:20;;;;;;;50.10;20.10;;;;;;;;;;2365824;56;21045;-74
2021/12/23 06:52:47;;;;;;;45.22;19.80;;;;;;;;;;2365860;56;21032;-74
2021/12/23 06:55:15;;;;;;;45.30;20.50;;;;;;;;;;2366021;56;21531;-74
2021/12/23 06:57:43;;;;;;;45.28;19.08;;;;;;;;;;2425919;53;21092;-74
2021/12/23 07:00:14;;;;;;;45.50;20.20;;;;;;;;;;2458327;53;21069;-74
2021/12/23 07:02:41;;;;;;;41.90;19.25;;;;;;;;;;2365935;56;21065;-74
2021/12/23 07:05:09;;;;;;;49.78;20.90;;;;;;;;;;2366001;56;21560;-75
2021/12/23 07:07:42;;;;;;;45.95;20.02;;;;;;;;;;2366109;56;21045;-74
2021/12/23 07:10:08;;;;;;;;;;;;;;;;;;2397305;53;21738;-75
2021/12/23 07:12:35;;;;;;;44.70;19.62;;;;;;;;;;2365920;56;20383;-74
2021/12/23 07:15:02;;;;;;;44.72;19.00;;;;;;;;;;2365859;56;21104;-74
2021/12/23 07:17:29;;;;;;;43.75;19.12;;;;;;;;;;2366108;56;21117;-75
2021/12/23 07:19:56;;;;;;;45.03;20.40;;;;;;;;;;2375578;53;21081;-75
2021/12/23 07:22:23;;;;;;;43.90;19.20;;;;;;;;;;2365593;56;21108;-74
2021/12/23 07:24:50;;;;;;;44.30;21.48;;;;;;;;;;2363605;56;21045;-74
2021/12/23 07:27:17;;;;;;;47.20;22.65;;;;;;;;;;2365230;56;21030;-74
2021/12/23 07:29:44;;;;;;;39.20;19.23;;;;;;;;;;2365130;56;21128;-74
2021/12/23 07:32:11;;;;;;;41.75;19.55;;;;;;;;;;2394118;53;21042;-74
2021/12/23 07:34:40;;;;;;;41.80;19.02;;;;;;;;;;2365406;56;21599;-74
2021/12/23 07:37:07;;;;;;;44.15;19.52;;;;;;;;;;2365688;56;21046;-75
2021/12/23 07:39:36;;;;;;;45.08;19.42;;;;;;;;;;2365156;56;21029;-74
2021/12/23 07:42:03;;;;;;;42.03;19.23;;;;;;;;;;2380501;53;21666;-75
2021/12/23 07:44:30;;;;;;;40.72;19.08;;;;;;;;;;2365641;56;21112;-74
2021/12/23 07:46:58;;;;;;;46.08;20.90;;;;;;;;;;2365813;56;21046;-75
2021/12/23 07:49:27;;;;;;;38.50;18.42;;;;;;;;;;2365536;56;21168;-74
2021/12/23 07:51:54;;;;;;;41.03;19.75;;;;;;;;;;2366060;56;21101;-74
2021/12/23 07:54:21;;;;;;;38.05;16.60;;;;;;;;;;2365730;56;21376;-75
2021/12/23 07:56:48;;;;;;;40.83;18.98;;;;;;;;;;2366174;56;21097;-74
2021/12/23 07:59:15;;;;;;;45.17;19.60;;;;;;;;;;2363722;56;21037;-75
2021/12/23 08:01:42;;;;;;;39.95;18.50;;;;;;;;;;2365485;56;21041;-75
2021/12/23 08:04:09;;;;;;;40.60;20.23;;;;;;;;;;2364922;53;21125;-75
2021/12/23 08:06:37;;;;;;;38.25;18.25;;;;;;;;;;2403711;53;21057;-74
2021/12/23 08:09:04;;;;;;;39.75;18.30;;;;;;;;;;2364279;56;21208;-75
2021/12/23 08:11:31;;;;;;;43.75;19.00;;;;;;;;;;2364859;56;21058;-74
2021/12/23 08:13:58;;;;;;;39.28;18.75;;;;;;;;;;2365650;56;21560;-75
2021/12/23 08:16:25;;;;;;;37.85;16.83;;;;;;;;;;2364440;56;21017;-75
2021/12/23 08:18:52;;;;;;;37.35;18.08;;;;;;;;;;2364872;56;21541;-75
2021/12/23 08:21:19;;;;;;;45.47;21.10;;;;;;;;;;2364971;56;21081;-75
2021/12/23 08:23:46;;;;;;;41.45;19.23;;;;;;;;;;2364916;56;21124;-75
2021/12/23 08:26:16;;;;;;;40.25;17.83;;;;;;;;;;2365691;56;21022;-75
2021/12/23 08:28:43;;;;;;;33.60;16.33;;;;;;;;;;2364885;56;21120;-75
2021/12/23 08:31:11;;;;;;;37.53;19.02;;;;;;;;;;2364981;56;21039;-74
2021/12/23 08:33:38;;;;;;;42.05;18.62;;;;;;;;;;2370300;53;21525;-75
2021/12/23 08:36:05;;;;;;;41.33;18.70;;;;;;;;;;2364766;56;21635;-74
2021/12/23 08:38:32;;;;;;;41.83;19.95;;;;;;;;;;2366454;53;21021;-75
2021/12/23 08:40:59;;;;;;;34.88;16.10;;;;;;;;;;2365295;56;21042;-74
2021/12/23 08:43:26;;;;;;;37.58;18.60;;;;;;;;;;2365519;56;21117;-75
2021/12/23 08:45:53;;;;;;;43.90;19.35;;;;;;;;;;2383825;53;21533;-75
2021/12/23 08:48:20;;;;;;;37.75;18.50;;;;;;;;;;2365550;56;21049;-74
2021/12/23 08:50:47;;;;;;;39.38;18.73;;;;;;;;;;2371502;53;21414;-75
2021/12/23 08:53:14;;;;;;;36.35;17.85;;;;;;;;;;2365601;56;21121;-74
2021/12/23 08:55:41;;;;;;;38.47;18.75;;;;;;;;;;2365646;56;21030;-74
2021/12/23 08:58:09;;;;;;;39.33;19.55;;;;;;;;;;2470987;53;21647;-75
2021/12/23 09:00:37;;;;;;;39.25;18.48;;;;;;;;;;2365697;56;21611;-75
2021/12/23 09:03:05;;;;;;;42.83;20.40;;;;;;;;;;2365667;56;21143;-75
2021/12/23 09:05:33;;;;;;;35.42;17.30;;;;;;;;;;2585814;53;21049;-75
2021/12/23 09:08:00;;;;;;;35.47;17.52;;;;;;;;;;2365672;56;21081;-75
2021/12/23 09:10:27;;;;;;;39.05;19.75;;;;;;;;;;2370397;53;21064;-74
2021/12/23 09:12:54;;;;;;;33.95;17.12;;;;;;;;;;2365881;56;21363;-75
2021/12/23 09:15:21;;;;;;;33.45;17.65;;;;;;;;;;2365832;56;21089;-75
2021/12/23 09:17:48;;;;;;;39.92;19.52;;;;;;;;;;2365562;56;21021;-75
2021/12/23 09:20:17;;;;;;;35.88;17.37;;;;;;;;;;2365453;56;21615;-75
2021/12/23 09:22:44;;;;;;;35.35;17.62;;;;;;;;;;2366034;56;21049;-74
2021/12/23 09:25:13;;;;;;;37.40;18.92;;;;;;;;;;2365483;56;21033;-75
2021/12/23 09:27:52;;;;;;;40.83;21.00;;;;;;;;;;2365910;56;21105;-75
2021/12/23 09:33:05;;;;;;;33.25;18.08;;;;;;;;;;2365824;53;21031;-75
2021/12/23 09:35:33;;;;;;;36.67;18.02;;;;;;;;;;2376406;53;21177;-74
2021/12/23 09:38:00;;;;;;;36.90;17.80;;;;;;;;;;2371944;53;21123;-75
2021/12/23 09:40:29;;;;;;;34.45;17.35;;;;;;;;;;2365177;56;21101;-75
2021/12/23 09:42:58;;;;;;;36.38;16.87;;;;;;;;;;2365935;56;21061;-75
2021/12/23 09:45:25;;;;;;;36.75;18.73;;;;;;;;;;2365784;56;21666;-75
2021/12/23 09:47:53;;;;;;;34.17;17.35;;;;;;;;;;2488971;53;21093;-74
2021/12/23 09:50:22;;;;;;;34.28;17.40;;;;;;;;;;2365368;56;21036;-74
2021/12/23 09:52:51;;;;;;;34.83;17.60;;;;;;;;;;2365328;56;21188;-74
2021/12/23 09:55:19;;;;;;;34.97;18.30;;;;;;;;;;2365428;56;21105;-75
2021/12/23 09:57:47;;;;;;;36.15;17.75;;;;;;;;;;2365928;56;21641;-75
2021/12/23 10:00:16;;;;;;;32.00;17.37;;;;;;;;;;2384624;53;21043;-75
2021/12/23 10:02:43;;;;;;;31.98;16.45;;;;;;;;;;2366011;56;21025;-75
2021/12/23 10:05:12;;;;;;;34.13;18.08;;;;;;;;;;2365232;56;21034;-75
2021/12/23 10:07:40;;;;;;;35.25;17.10;;;;;;;;;;2365765;56;21077;-75
2021/12/23 10:10:13;;;;;;;34.85;16.67;;;;;;;;;;2365688;57;21124;-74
2021/12/23 10:27:07;;;;;;;32.90;17.30;;;;;;;;;;2366328;53;21049;-74
2021/12/23 10:30:16;;;;;;;35.80;18.37;;;;;;;;;;2365652;56;21117;-75
2021/12/23 10:38:24;;;;;;;33.90;18.25;;;;;;;;;;2365846;53;21041;-74
2021/12/23 10:40:52;;;;;;;33.28;17.80;;;;;;;;;;2365819;56;21033;-75
2021/12/23 10:43:25;;;;;;;33.47;17.23;;;;;;;;;;2365565;56;21058;-75
2021/12/23 10:45:56;;;;;;;34.10;17.55;;;;;;;;;;2365989;56;21280;-75
2021/12/23 10:48:24;;;;;;;35.73;18.60;;;;;;;;;;2365907;56;21520;-75
2021/12/23 10:50:57;;;;;;;38.20;20.15;;;;;;;;;;2365636;56;21042;-75
2021/12/23 10:53:39;;;;;;;37.28;19.60;;;;;;;;;;2366102;56;21026;-74
2021/12/23 10:59:03;;;;;;;36.00;18.27;;;;;;;;;;2364439;53;21025;-74
2021/12/23 11:01:31;;;;;;;35.10;16.83;;;;;;;;;;2364433;56;21065;-74
2021/12/23 11:04:01;;;;;;;38.13;19.85;;;;;;;;;;2410515;53;68257;-79
2021/12/23 11:06:32;;;;;;;37.83;19.12;;;;;;;;;;2268099;59;21117;-78
2021/12/23 11:09:11;;;;;;;36.33;17.10;;;;;;;;;;2267878;59;21050;-78
2021/12/23 11:12:12;;;;;;;35.88;18.65;;;;;;;;;;2268748;59;21097;-80
2021/12/23 11:37:14;;;;;;;35.90;18.12;;;;;;;;;;2320262;56;21054;-75
2021/12/23 11:39:53;;;;;;;32.90;17.00;;;;;;;;;;2629181;52;21027;-78
2021/12/23 11:42:29;;;;;;;32.38;17.70;;;;;;;;;;2375774;56;21047;-80
2021/12/23 11:44:57;;;;;;;33.88;17.60;;;;;;;;;;2376120;56;21039;-78
2021/12/23 11:47:25;;;;;;;34.63;18.37;;;;;;;;;;2630251;52;21086;-80
2021/12/23 11:49:53;;;;;;;33.60;17.42;;;;;;;;;;2375839;56;21138;-78
2021/12/23 11:52:20;;;;;;;38.13;19.30;;;;;;;;;;2376378;56;21055;-79
2021/12/23 11:54:48;;;;;;;36.03;16.75;;;;;;;;;;2375988;56;21094;-77
2021/12/23 11:57:16;;;;;;;34.45;18.17;;;;;;;;;;2630331;52;21110;-77
2021/12/23 11:59:45;;;;;;;32.28;16.80;;;;;;;;;;2376051;56;21114;-79
2021/12/23 12:02:14;;;;;;;36.95;18.65;;;;;;;;;;2376551;56;21042;-78
2021/12/23 12:04:41;;;;;;;33.15;17.48;;;;;;;;;;2629319;52;21312;-78
2021/12/23 12:07:13;;;;;;;33.05;17.67;;;;;;;;;;2375195;56;21601;-78
2021/12/23 12:09:53;;;;;;;35.97;19.98;;;;;;;;;;2376460;56;21058;-79
2021/12/23 12:12:20;;;;;;;32.00;16.92;;;;;;;;;;2375764;56;21573;-78
2021/12/23 12:14:48;;;;;;;37.33;19.27;;;;;;;;;;2376226;56;21118;-78
2021/12/23 12:17:35;;;;;;;32.53;17.73;;;;;;;;;;2376411;56;21019;-78
2021/12/23 12:20:04;;;;;;;32.90;18.48;;;;;;;;;;2629184;52;21026;-79
2021/12/23 12:22:51;;;;;;;35.08;18.75;;;;;;;;;;2376014;56;21122;-78
2021/12/23 12:25:37;;;;;;;39.92;18.87;;;;;;;;;;2629545;52;21519;-79
2021/12/23 12:28:12;;;;;;;34.60;18.00;;;;;;;;;;2375949;56;21043;-77
2021/12/23 12:30:40;;;;;;;34.33;16.60;;;;;;;;;;2629662;52;21097;-79
2021/12/23 12:33:11;;;;;;;30.48;16.80;;;;;;;;;;2375454;56;21030;-78
2021/12/23 12:35:41;;;;;;;31.33;17.55;;;;;;;;;;2375955;56;21090;-78
2021/12/23 12:38:13;;;;;;;33.95;18.30;;;;;;;;;;2375928;56;21034;-78
2021/12/23 12:40:59;;;;;;;30.23;17.23;;;;;;;;;;2629358;52;21035;-77
2021/12/23 12:43:32;;;;;;;30.73;17.33;;;;;;;;;;2375462;56;21082;-78
2021/12/23 12:45:59;;;;;;;30.77;17.65;;;;;;;;;;2628220;52;21078;-77
2021/12/23 12:49:05;;;;;;;30.00;17.35;;;;;;;;;;2374618;56;21119;-78
2021/12/23 12:51:34;;;;;;;34.58;16.98;;;;;;;;;;2374386;56;21027;-78
2021/12/23 12:54:04;;;;;;;31.08;16.75;;;;;;;;;;2627479;52;21161;-78
2021/12/23 12:56:32;;;;;;;35.78;17.45;;;;;;;;;;2628932;52;21043;-78
2021/12/23 12:58:59;;;;;;;35.33;17.67;;;;;;;;;;2374113;56;21066;-78
2021/12/23 13:01:32;;;;;;;29.42;16.23;;;;;;;;;;2374216;56;21039;-77
2021/12/23 13:04:00;;;;;;;33.33;16.73;;;;;;;;;;2628032;52;21063;-78
2021/12/23 13:06:36;;;;;;;30.02;17.00;;;;;;;;;;2375739;56;21063;-80
2021/12/23 13:09:05;;;;;;;29.90;16.55;;;;;;;;;;2629680;52;21086;-79
2021/12/23 13:11:32;;;;;;;33.88;17.83;;;;;;;;;;2377280;56;21046;-79
2021/12/23 13:14:03;;;;;;;32.03;16.67;;;;;;;;;;2376550;56;21567;-79
2021/12/23 13:16:31;;;;;;;27.40;15.70;;;;;;;;;;2629321;52;21057;-80
2021/12/23 13:21:49;;;;;;;33.55;18.98;;;;;;;;;;2606056;52;22063;-79
2021/12/23 13:24:18;;;;;;;34.83;17.05;;;;;;;;;;2347755;56;21548;-79
2021/12/23 13:26:48;;;;;;;34.08;18.60;;;;;;;;;;2348060;57;21042;-79
2021/12/23 13:29:15;;;;;;;35.80;18.45;;;;;;;;;;2593742;53;21015;-78
2021/12/23 13:31:43;;;;;;;32.40;17.27;;;;;;;;;;2593351;53;21125;-79
2021/12/23 13:34:12;;;;;;;32.75;17.70;;;;;;;;;;2346412;57;21524;-79
2021/12/23 13:36:40;;;;;;;35.00;17.10;;;;;;;;;;2347532;57;21089;-79
2021/12/23 13:39:08;;;;;;;39.20;19.12;;;;;;;;;;2595388;53;21187;-80
2021/12/23 13:41:36;;;;;;;36.58;19.40;;;;;;;;;;2348217;57;21564;-80
2021/12/23 13:44:19;;;;;;;37.78;19.75;;;;;;;;;;2349206;57;21121;-79
2021/12/23 13:46:55;;;;;;;34.55;19.05;;;;;;;;;;2349628;57;21038;-79
2021/12/23 13:49:30;;;;;;;36.60;18.40;;;;;;;;;;2596314;53;21525;-79
2021/12/23 13:51:57;;;;;;;37.22;19.62;;;;;;;;;;2350431;57;21037;-80
2021/12/23 13:54:24;;;;;;;33.78;18.58;;;;;;;;;;2350812;57;21106;-80
2021/12/23 13:56:52;;;;;;;39.75;19.35;;;;;;;;;;2351764;57;21041;-81
2021/12/23 13:59:20;;;;;;;41.10;21.08;;;;;;;;;;2350870;57;21105;-81
2021/12/23 14:01:54;;;;;;;35.65;18.30;;;;;;;;;;2351295;57;20995;-81
2021/12/23 14:04:36;;;;;;;35.13;20.70;;;;;;;;;;2351437;57;21074;-80
2021/12/23 14:07:08;;;;;;;40.30;19.62;;;;;;;;;;2598882;53;21042;-81
2021/12/23 14:09:38;;;;;;;38.08;20.25;;;;;;;;;;2350799;57;21045;-81
2021/12/23 14:12:05;;;;;;;41.67;20.88;;;;;;;;;;2350007;57;21018;-81
2021/12/23 14:14:33;;;;;;;39.53;20.27;;;;;;;;;;2350130;57;21133;-82
2021/12/23 14:17:00;;;;;;;38.55;20.17;;;;;;;;;;2349200;57;21081;-81
2021/12/23 14:19:40;;;;;;;37.38;21.15;;;;;;;;;;2348668;57;21406;-81
2021/12/23 14:24:54;;;;;;;35.15;19.65;;;;;;;;;;2349354;57;20981;-81
2021/12/23 14:27:32;;;;;;;34.20;18.57;;;;;;;;;;2349459;57;21113;-81
2021/12/23 14:30:05;;;;;;;44.28;22.17;;;;;;;;;;2348269;57;21164;-79
2021/12/23 14:32:32;;;;;;;37.63;19.77;;;;;;;;;;2349118;57;21145;-79
2021/12/23 14:34:59;;;;;;;36.08;18.90;;;;;;;;;;2348506;57;21069;-79
2021/12/23 14:37:26;;;;;;;40.42;20.58;;;;;;;;;;2595958;53;21062;-79
2021/12/23 14:39:56;;;;;;;40.25;19.48;;;;;;;;;;2348018;57;21062;-85
2021/12/23 14:42:28;;;;;;;38.80;21.35;;;;;;;;;;2593655;53;21038;-82
2021/12/23 14:45:02;;;;;;;46.13;20.90;;;;;;;;;;2345685;57;21042;-82
2021/12/23 14:47:32;;;;;;;45.95;22.33;;;;;;;;;;2346590;57;21054;-79
2021/12/23 14:50:12;;;;;;;41.00;21.45;;;;;;;;;;2347107;57;21054;-80
2021/12/23 14:52:41;;;;;;;41.10;20.45;;;;;;;;;;2347449;57;21057;-79
2021/12/23 14:55:11;;;;;;;47.97;23.30;;;;;;;;;;2346984;57;21053;-79
2021/12/23 14:57:39;;;;;;;44.03;22.90;;;;;;;;;;2345660;57;21612;-78
2021/12/23 15:00:07;;;;;;;42.72;24.10;;;;;;;;;;2344995;57;21117;-78
2021/12/23 15:02:35;;;;;;;39.97;21.83;;;;;;;;;;2345949;57;21631;-78
2021/12/23 15:05:14;;;;;;;44.75;23.30;;;;;;;;;;2346960;57;21062;-79
2021/12/23 15:07:55;;;;;;;48.20;23.75;;;;;;;;;;2594308;53;21592;-78
2021/12/23 15:10:33;;;;;;;46.25;23.30;;;;;;;;;;2344166;57;21140;-79
2021/12/23 15:13:01;;;;;;;46.85;22.98;;;;;;;;;;2346492;57;21034;-78
2021/12/23 15:15:32;;;;;;;46.92;24.37;;;;;;;;;;2346207;57;21050;-78
2021/12/23 15:18:11;;;;;;;42.88;21.70;;;;;;;;;;2346300;57;21138;-79
2021/12/23 15:20:40;;;;;;;42.30;21.90;;;;;;;;;;2345332;57;21123;-81
2021/12/23 15:23:08;;;;;;;45.45;23.80;;;;;;;;;;2346075;57;21045;-78
2021/12/23 15:25:36;;;;;;;43.85;23.20;;;;;;;;;;2593008;53;21062;-79